Gifford, Iowa
Current Conditions -  °F | °C
As of 5:53 AM on Sunday 23 Nov 2014 (Local Time) from KMIW Reporting Station
Haze Haze  
Wind Chill: 11°   Ceiling: 700
Heat Index: 11°   Visibility: 3mi
Dew Point: 10°   Wind: 12mph
Humidity: 96%   Direction: 160°SSE
Pressure: 29.54"   Gusts: NA
Location:  42.29°N, 93.09°W
Report Text: KMIW 231153Z AUTO 16010KT 3SM BR BKN007 BKN012 OVC017 11/10 A2954 RMK AO2 SLP006 T01060100 10117 20106 58009
Loading
Personal Weather Stations






























Interactive Weather Map New forecast layout! Learn more

10-Day Weather Forecast

Advertisements
Track Severe Weather on mobile